sensor_id;sensor_type;location;lat;lon;timestamp;temperature;humidity
15217;DHT22;7711;46.634;14.318;2024-01-25T00:00:17;-1.80;1.00
15217;DHT22;7711;46.634;14.318;2024-01-25T00:02:44;-1.70;1.00
15217;DHT22;7711;46.634;14.318;2024-01-25T00:05:13;-1.70;1.00
15217;DHT22;7711;46.634;14.318;2024-01-25T00:07:46;-1.70;1.00
15217;DHT22;7711;46.634;14.318;2024-01-25T00:10:13;-1.70;1.00
15217;DHT22;7711;46.634;14.318;2024-01-25T00:12:41;-1.70;1.00
15217;DHT22;7711;46.634;14.318;2024-01-25T00:15:09;-1.70;1.00
15217;DHT22;7711;46.634;14.318;2024-01-25T00:17:36;-1.70;1.00
15217;DHT22;7711;46.634;14.318;2024-01-25T00:20:03;-1.70;1.00
15217;DHT22;7711;46.634;14.318;2024-01-25T00:22:32;-1.60;1.00
15217;DHT22;7711;46.634;14.318;2024-01-25T00:24:59;-1.60;1.00
15217;DHT22;7711;46.634;14.318;2024-01-25T00:27:26;-1.40;1.00
15217;DHT22;7711;46.634;14.318;2024-01-25T00:29:53;-1.40;1.00
15217;DHT22;7711;46.634;14.318;2024-01-25T00:32:20;-1.40;1.00
15217;DHT22;7711;46.634;14.318;2024-01-25T00:34:47;-1.40;1.00
15217;DHT22;7711;46.634;14.318;2024-01-25T00:37:15;-1.40;1.00
15217;DHT22;7711;46.634;14.318;2024-01-25T00:39:44;-1.40;1.00
15217;DHT22;7711;46.634;14.318;2024-01-25T00:42:13;-1.40;1.00
15217;DHT22;7711;46.634;14.318;2024-01-25T00:44:41;-1.40;1.00
15217;DHT22;7711;46.634;14.318;2024-01-25T00:47:09;-1.40;1.00
15217;DHT22;7711;46.634;14.318;2024-01-25T00:49:36;-1.40;1.00
15217;DHT22;7711;46.634;14.318;2024-01-25T00:52:04;-1.40;1.00
15217;DHT22;7711;46.634;14.318;2024-01-25T00:54:31;-1.40;1.00
15217;DHT22;7711;46.634;14.318;2024-01-25T00:57:00;-1.30;1.00
15217;DHT22;7711;46.634;14.318;2024-01-25T00:59:28;-1.30;1.00
15217;DHT22;7711;46.634;14.318;2024-01-25T01:01:55;-1.30;1.00
15217;DHT22;7711;46.634;14.318;2024-01-25T01:04:25;-1.20;1.00
15217;DHT22;7711;46.634;14.318;2024-01-25T01:06:52;-1.20;1.00
15217;DHT22;7711;46.634;14.318;2024-01-25T01:09:19;-1.20;1.00
15217;DHT22;7711;46.634;14.318;2024-01-25T01:11:46;-1.20;1.00
15217;DHT22;7711;46.634;14.318;2024-01-25T01:14:17;-1.10;1.00
15217;DHT22;7711;46.634;14.318;2024-01-25T01:16:44;-1.10;1.00
15217;DHT22;7711;46.634;14.318;2024-01-25T01:19:11;-1.10;1.00
15217;DHT22;7711;46.634;14.318;2024-01-25T01:21:38;-1.00;1.00
15217;DHT22;7711;46.634;14.318;2024-01-25T01:24:09;-1.00;1.00
15217;DHT22;7711;46.634;14.318;2024-01-25T01:26:36;-1.00;1.00
15217;DHT22;7711;46.634;14.318;2024-01-25T01:29:03;-0.90;1.00
15217;DHT22;7711;46.634;14.318;2024-01-25T01:31:31;-1.10;1.00
15217;DHT22;7711;46.634;14.318;2024-01-25T01:33:58;-1.10;1.00
15217;DHT22;7711;46.634;14.318;2024-01-25T01:36:26;-1.10;1.00
15217;DHT22;7711;46.634;14.318;2024-01-25T01:38:53;-1.10;1.00
15217;DHT22;7711;46.634;14.318;2024-01-25T01:41:19;-1.10;1.00
15217;DHT22;7711;46.634;14.318;2024-01-25T01:43:46;-1.00;1.00
15217;DHT22;7711;46.634;14.318;2024-01-25T01:46:24;-1.00;1.00
15217;DHT22;7711;46.634;14.318;2024-01-25T01:48:57;-1.00;1.00
15217;DHT22;7711;46.634;14.318;2024-01-25T01:51:24;-1.10;1.00
15217;DHT22;7711;46.634;14.318;2024-01-25T01:53:52;-1.00;1.00
15217;DHT22;7711;46.634;14.318;2024-01-25T01:56:20;-1.00;1.00
15217;DHT22;7711;46.634;14.318;2024-01-25T01:58:48;-1.00;1.00
15217;DHT22;7711;46.634;14.318;2024-01-25T02:01:15;-1.00;1.00
15217;DHT22;7711;46.634;14.318;2024-01-25T02:03:42;-1.10;1.00
15217;DHT22;7711;46.634;14.318;2024-01-25T02:06:10;-1.10;1.00
15217;DHT22;7711;46.634;14.318;2024-01-25T02:08:37;-1.00;1.00
15217;DHT22;7711;46.634;14.318;2024-01-25T02:11:04;-1.00;1.00
15217;DHT22;7711;46.634;14.318;2024-01-25T02:13:31;-1.00;1.00
15217;DHT22;7711;46.634;14.318;2024-01-25T02:15:58;-1.10;1.00
15217;DHT22;7711;46.634;14.318;2024-01-25T02:18:25;-1.00;1.00
15217;DHT22;7711;46.634;14.318;2024-01-25T02:20:52;-1.10;1.00
15217;DHT22;7711;46.634;14.318;2024-01-25T02:23:21;-1.10;1.00
15217;DHT22;7711;46.634;14.318;2024-01-25T02:25:47;-1.00;1.00
15217;DHT22;7711;46.634;14.318;2024-01-25T02:28:14;-1.00;1.00
15217;DHT22;7711;46.634;14.318;2024-01-25T02:30:41;-1.10;1.00
15217;DHT22;7711;46.634;14.318;2024-01-25T02:33:08;-1.00;1.00
15217;DHT22;7711;46.634;14.318;2024-01-25T02:35:36;-0.90;1.00
15217;DHT22;7711;46.634;14.318;2024-01-25T02:38:03;-1.00;1.00
15217;DHT22;7711;46.634;14.318;2024-01-25T02:40:32;-0.90;1.00
15217;DHT22;7711;46.634;14.318;2024-01-25T02:42:59;-0.90;1.00
15217;DHT22;7711;46.634;14.318;2024-01-25T02:45:26;-0.90;1.00
15217;DHT22;7711;46.634;14.318;2024-01-25T02:47:53;-0.90;1.00
15217;DHT22;7711;46.634;14.318;2024-01-25T02:50:20;-0.90;1.00
15217;DHT22;7711;46.634;14.318;2024-01-25T02:52:47;-0.80;1.00
15217;DHT22;7711;46.634;14.318;2024-01-25T02:55:14;-0.80;1.00
15217;DHT22;7711;46.634;14.318;2024-01-25T02:57:46;-0.70;1.00
15217;DHT22;7711;46.634;14.318;2024-01-25T03:00:13;-0.60;1.00
15217;DHT22;7711;46.634;14.318;2024-01-25T03:02:40;-0.60;1.00
15217;DHT22;7711;46.634;14.318;2024-01-25T03:05:07;-0.60;1.00
15217;DHT22;7711;46.634;14.318;2024-01-25T03:07:34;-0.60;1.00
15217;DHT22;7711;46.634;14.318;2024-01-25T03:10:01;-0.50;1.00
15217;DHT22;7711;46.634;14.318;2024-01-25T03:12:28;-0.60;1.00
15217;DHT22;7711;46.634;14.318;2024-01-25T03:14:57;-0.40;1.00
15217;DHT22;7711;46.634;14.318;2024-01-25T03:17:24;-0.40;1.00
15217;DHT22;7711;46.634;14.318;2024-01-25T03:19:51;-0.50;1.00
15217;DHT22;7711;46.634;14.318;2024-01-25T03:22:18;-0.50;1.00
15217;DHT22;7711;46.634;14.318;2024-01-25T03:24:45;-0.60;1.00
15217;DHT22;7711;46.634;14.318;2024-01-25T03:27:12;-0.50;1.00
15217;DHT22;7711;46.634;14.318;2024-01-25T03:29:41;-0.60;1.00
15217;DHT22;7711;46.634;14.318;2024-01-25T03:32:10;-0.40;1.00
15217;DHT22;7711;46.634;14.318;2024-01-25T03:34:37;-0.50;1.00
15217;DHT22;7711;46.634;14.318;2024-01-25T03:37:04;-0.60;1.00
15217;DHT22;7711;46.634;14.318;2024-01-25T03:39:31;-0.70;1.00
15217;DHT22;7711;46.634;14.318;2024-01-25T03:41:59;-0.70;1.00
15217;DHT22;7711;46.634;14.318;2024-01-25T03:44:25;-0.70;1.00
15217;DHT22;7711;46.634;14.318;2024-01-25T03:46:52;-0.80;1.00
15217;DHT22;7711;46.634;14.318;2024-01-25T03:49:21;-0.80;1.00
15217;DHT22;7711;46.634;14.318;2024-01-25T03:51:49;-0.90;1.00
15217;DHT22;7711;46.634;14.318;2024-01-25T03:54:16;-0.80;1.00
15217;DHT22;7711;46.634;14.318;2024-01-25T03:56:43;-0.90;1.00
15217;DHT22;7711;46.634;14.318;2024-01-25T03:59:10;-0.90;1.00
15217;DHT22;7711;46.634;14.318;2024-01-25T04:01:43;-1.00;1.00
15217;DHT22;7711;46.634;14.318;2024-01-25T04:04:10;-1.00;1.00
15217;DHT22;7711;46.634;14.318;2024-01-25T04:06:41;-1.00;1.00
15217;DHT22;7711;46.634;14.318;2024-01-25T04:09:09;-1.00;1.00
15217;DHT22;7711;46.634;14.318;2024-01-25T04:11:36;-1.10;1.00
15217;DHT22;7711;46.634;14.318;2024-01-25T04:14:03;-1.10;1.00
15217;DHT22;7711;46.634;14.318;2024-01-25T04:16:31;-1.10;1.00
15217;DHT22;7711;46.634;14.318;2024-01-25T04:18:58;-1.00;1.00
15217;DHT22;7711;46.634;14.318;2024-01-25T04:21:26;-1.00;1.00
15217;DHT22;7711;46.634;14.318;2024-01-25T04:23:55;-1.10;1.00
15217;DHT22;7711;46.634;14.318;2024-01-25T04:26:22;-1.10;1.00
15217;DHT22;7711;46.634;14.318;2024-01-25T04:28:49;-1.10;1.00
15217;DHT22;7711;46.634;14.318;2024-01-25T04:31:16;-1.10;1.00
15217;DHT22;7711;46.634;14.318;2024-01-25T04:33:43;-1.10;1.00
15217;DHT22;7711;46.634;14.318;2024-01-25T04:36:10;-1.00;1.00
15217;DHT22;7711;46.634;14.318;2024-01-25T04:38:37;-1.10;1.00
15217;DHT22;7711;46.634;14.318;2024-01-25T04:41:05;-1.10;1.00
15217;DHT22;7711;46.634;14.318;2024-01-25T04:43:34;-1.10;1.00
15217;DHT22;7711;46.634;14.318;2024-01-25T04:46:02;-1.00;1.00
15217;DHT22;7711;46.634;14.318;2024-01-25T04:48:29;-1.10;1.00
15217;DHT22;7711;46.634;14.318;2024-01-25T04:50:56;-1.10;1.00
15217;DHT22;7711;46.634;14.318;2024-01-25T04:53:24;-1.10;1.00
15217;DHT22;7711;46.634;14.318;2024-01-25T04:55:53;-1.20;1.00
15217;DHT22;7711;46.634;14.318;2024-01-25T04:58:21;-1.20;1.00
15217;DHT22;7711;46.634;14.318;2024-01-25T05:00:48;-1.20;1.00
15217;DHT22;7711;46.634;14.318;2024-01-25T05:03:16;-1.20;1.00
15217;DHT22;7711;46.634;14.318;2024-01-25T05:05:43;-1.20;1.00
15217;DHT22;7711;46.634;14.318;2024-01-25T05:08:10;-1.30;1.00
15217;DHT22;7711;46.634;14.318;2024-01-25T05:10:37;-1.20;1.00
15217;DHT22;7711;46.634;14.318;2024-01-25T05:13:04;-1.20;1.00
15217;DHT22;7711;46.634;14.318;2024-01-25T05:15:32;-1.30;1.00
15217;DHT22;7711;46.634;14.318;2024-01-25T05:17:59;-1.30;1.00
15217;DHT22;7711;46.634;14.318;2024-01-25T05:20:26;-1.30;1.00
15217;DHT22;7711;46.634;14.318;2024-01-25T05:22:58;-1.20;6.50
15217;DHT22;7711;46.634;14.318;2024-01-25T05:25:25;-1.20;51.30
15217;DHT22;7711;46.634;14.318;2024-01-25T05:27:53;-1.20;23.60
15217;DHT22;7711;46.634;14.318;2024-01-25T05:30:20;-1.20;66.20
15217;DHT22;7711;46.634;14.318;2024-01-25T05:32:49;-1.30;1.00
15217;DHT22;7711;46.634;14.318;2024-01-25T05:35:16;-1.30;56.80
15217;DHT22;7711;46.634;14.318;2024-01-25T05:37:43;-1.30;2.40
15217;DHT22;7711;46.634;14.318;2024-01-25T05:40:11;-1.40;14.10
15217;DHT22;7711;46.634;14.318;2024-01-25T05:42:38;-1.40;29.40
15217;DHT22;7711;46.634;14.318;2024-01-25T05:45:06;-1.40;21.80
15217;DHT22;7711;46.634;14.318;2024-01-25T05:47:34;-1.50;1.00
15217;DHT22;7711;46.634;14.318;2024-01-25T05:50:02;-1.60;1.00
15217;DHT22;7711;46.634;14.318;2024-01-25T05:52:30;-1.70;1.00
15217;DHT22;7711;46.634;14.318;2024-01-25T05:54:57;-1.70;1.00
15217;DHT22;7711;46.634;14.318;2024-01-25T05:57:24;-1.80;1.00
15217;DHT22;7711;46.634;14.318;2024-01-25T05:59:51;-1.70;27.80
15217;DHT22;7711;46.634;14.318;2024-01-25T06:02:18;-1.70;27.90
15217;DHT22;7711;46.634;14.318;2024-01-25T06:04:45;-1.70;56.80
15217;DHT22;7711;46.634;14.318;2024-01-25T06:07:14;-1.70;91.50
15217;DHT22;7711;46.634;14.318;2024-01-25T06:09:41;-1.70;75.90
15217;DHT22;7711;46.634;14.318;2024-01-25T06:12:08;-1.80;82.80
15217;DHT22;7711;46.634;14.318;2024-01-25T06:14:35;-1.80;99.90
15217;DHT22;7711;46.634;14.318;2024-01-25T06:17:02;-1.80;99.90
15217;DHT22;7711;46.634;14.318;2024-01-25T06:19:29;-1.80;99.90
15217;DHT22;7711;46.634;14.318;2024-01-25T06:21:56;-1.90;99.90
15217;DHT22;7711;46.634;14.318;2024-01-25T06:24:24;-1.60;99.90
15217;DHT22;7711;46.634;14.318;2024-01-25T06:26:52;-2.00;99.90
15217;DHT22;7711;46.634;14.318;2024-01-25T06:29:19;-2.00;99.90
15217;DHT22;7711;46.634;14.318;2024-01-25T06:31:46;-2.00;99.90
15217;DHT22;7711;46.634;14.318;2024-01-25T06:34:13;-2.00;99.90
15217;DHT22;7711;46.634;14.318;2024-01-25T06:36:40;-2.10;99.90
15217;DHT22;7711;46.634;14.318;2024-01-25T06:39:07;-2.00;99.90
15217;DHT22;7711;46.634;14.318;2024-01-25T06:41:35;-2.00;99.90
15217;DHT22;7711;46.634;14.318;2024-01-25T06:44:02;-2.10;99.90
15217;DHT22;7711;46.634;14.318;2024-01-25T06:46:29;-2.20;99.90
15217;DHT22;7711;46.634;14.318;2024-01-25T06:48:56;-2.10;99.90
15217;DHT22;7711;46.634;14.318;2024-01-25T06:51:23;-2.00;99.90
15217;DHT22;7711;46.634;14.318;2024-01-25T06:53:50;-2.00;99.90
15217;DHT22;7711;46.634;14.318;2024-01-25T06:56:17;-2.00;99.90
15217;DHT22;7711;46.634;14.318;2024-01-25T06:58:46;-2.00;99.90
15217;DHT22;7711;46.634;14.318;2024-01-25T07:01:13;-2.00;99.90
15217;DHT22;7711;46.634;14.318;2024-01-25T07:03:40;-2.00;99.90
15217;DHT22;7711;46.634;14.318;2024-01-25T07:06:07;-2.00;99.90
15217;DHT22;7711;46.634;14.318;2024-01-25T07:08:34;-1.90;99.90
15217;DHT22;7711;46.634;14.318;2024-01-25T07:11:01;-1.90;99.90
15217;DHT22;7711;46.634;14.318;2024-01-25T07:13:28;-1.80;99.90
15217;DHT22;7711;46.634;14.318;2024-01-25T07:15:56;-1.80;99.90
15217;DHT22;7711;46.634;14.318;2024-01-25T07:18:23;-1.70;99.90
15217;DHT22;7711;46.634;14.318;2024-01-25T07:20:51;-1.50;99.90
15217;DHT22;7711;46.634;14.318;2024-01-25T07:23:18;-1.60;99.90
15217;DHT22;7711;46.634;14.318;2024-01-25T07:25:45;-1.50;99.90
15217;DHT22;7711;46.634;14.318;2024-01-25T07:28:12;-1.50;54.30
15217;DHT22;7711;46.634;14.318;2024-01-25T07:30:39;-1.60;1.00
15217;DHT22;7711;46.634;14.318;2024-01-25T07:33:07;-1.50;1.00
15217;DHT22;7711;46.634;14.318;2024-01-25T07:35:34;-1.60;1.00
15217;DHT22;7711;46.634;14.318;2024-01-25T07:38:01;-1.50;1.00
15217;DHT22;7711;46.634;14.318;2024-01-25T07:40:28;-1.50;1.00
15217;DHT22;7711;46.634;14.318;2024-01-25T07:42:55;-1.40;1.00
15217;DHT22;7711;46.634;14.318;2024-01-25T07:45:22;-1.50;1.00
15217;DHT22;7711;46.634;14.318;2024-01-25T07:47:49;-1.50;1.00
15217;DHT22;7711;46.634;14.318;2024-01-25T07:50:18;-1.50;1.00
15217;DHT22;7711;46.634;14.318;2024-01-25T07:52:44;-1.50;1.00
15217;DHT22;7711;46.634;14.318;2024-01-25T07:55:12;-1.50;1.00
15217;DHT22;7711;46.634;14.318;2024-01-25T07:57:39;-1.50;1.00
15217;DHT22;7711;46.634;14.318;2024-01-25T08:00:07;-1.40;1.00
15217;DHT22;7711;46.634;14.318;2024-01-25T08:02:34;-1.40;1.00
15217;DHT22;7711;46.634;14.318;2024-01-25T08:05:01;-1.40;1.00
15217;DHT22;7711;46.634;14.318;2024-01-25T08:07:30;-1.30;1.00
15217;DHT22;7711;46.634;14.318;2024-01-25T08:09:57;-1.30;1.00
15217;DHT22;7711;46.634;14.318;2024-01-25T08:12:24;-1.20;1.00
15217;DHT22;7711;46.634;14.318;2024-01-25T08:14:51;-1.00;1.00
15217;DHT22;7711;46.634;14.318;2024-01-25T08:17:19;-0.90;1.00
15217;DHT22;7711;46.634;14.318;2024-01-25T08:19:45;-0.70;1.00
15217;DHT22;7711;46.634;14.318;2024-01-25T08:22:12;-0.60;1.00
15217;DHT22;7711;46.634;14.318;2024-01-25T08:24:41;-0.40;1.00
15217;DHT22;7711;46.634;14.318;2024-01-25T08:27:09;-0.40;1.00
15217;DHT22;7711;46.634;14.318;2024-01-25T08:29:36;-0.20;1.00
15217;DHT22;7711;46.634;14.318;2024-01-25T08:32:03;-0.10;1.00
15217;DHT22;7711;46.634;14.318;2024-01-25T08:34:31;0.10;1.00
15217;DHT22;7711;46.634;14.318;2024-01-25T08:36:58;0.40;99.90
15217;DHT22;7711;46.634;14.318;2024-01-25T08:39:25;0.30;99.90
15217;DHT22;7711;46.634;14.318;2024-01-25T08:41:53;0.40;99.90
15217;DHT22;7711;46.634;14.318;2024-01-25T08:44:20;0.40;99.90
15217;DHT22;7711;46.634;14.318;2024-01-25T08:46:47;0.50;95.60
15217;DHT22;7711;46.634;14.318;2024-01-25T08:49:14;0.70;50.30
15217;DHT22;7711;46.634;14.318;2024-01-25T08:51:41;1.00;32.30
15217;DHT22;7711;46.634;14.318;2024-01-25T08:54:08;1.20;1.00
15217;DHT22;7711;46.634;14.318;2024-01-25T08:56:35;1.20;1.00
15217;DHT22;7711;46.634;14.318;2024-01-25T08:59:03;1.30;1.00
15217;DHT22;7711;46.634;14.318;2024-01-25T09:01:30;1.50;1.00
15217;DHT22;7711;46.634;14.318;2024-01-25T09:03:57;1.60;1.00
15217;DHT22;7711;46.634;14.318;2024-01-25T09:06:28;1.60;1.00
15217;DHT22;7711;46.634;14.318;2024-01-25T09:08:55;1.80;1.00
15217;DHT22;7711;46.634;14.318;2024-01-25T09:11:22;1.80;1.00
15217;DHT22;7711;46.634;14.318;2024-01-25T09:13:49;1.90;1.00
15217;DHT22;7711;46.634;14.318;2024-01-25T09:16:18;2.20;1.00
15217;DHT22;7711;46.634;14.318;2024-01-25T09:18:45;2.20;1.00
15217;DHT22;7711;46.634;14.318;2024-01-25T09:21:12;2.40;1.00
15217;DHT22;7711;46.634;14.318;2024-01-25T09:23:39;2.40;1.00
15217;DHT22;7711;46.634;14.318;2024-01-25T09:26:06;2.60;1.00
15217;DHT22;7711;46.634;14.318;2024-01-25T09:28:34;2.80;1.00
15217;DHT22;7711;46.634;14.318;2024-01-25T09:31:01;2.80;1.00
15217;DHT22;7711;46.634;14.318;2024-01-25T09:33:30;3.00;1.00
15217;DHT22;7711;46.634;14.318;2024-01-25T09:35:56;3.20;1.00
15217;DHT22;7711;46.634;14.318;2024-01-25T09:38:23;3.30;1.00
15217;DHT22;7711;46.634;14.318;2024-01-25T09:40:50;3.40;1.00
15217;DHT22;7711;46.634;14.318;2024-01-25T09:43:17;3.50;1.00
15217;DHT22;7711;46.634;14.318;2024-01-25T09:45:46;3.50;1.00
15217;DHT22;7711;46.634;14.318;2024-01-25T09:48:16;3.60;1.00
15217;DHT22;7711;46.634;14.318;2024-01-25T09:50:46;3.80;1.00
15217;DHT22;7711;46.634;14.318;2024-01-25T09:53:17;4.00;1.00
15217;DHT22;7711;46.634;14.318;2024-01-25T09:55:46;4.20;1.00
15217;DHT22;7711;46.634;14.318;2024-01-25T09:58:16;4.20;1.00
15217;DHT22;7711;46.634;14.318;2024-01-25T10:00:43;4.30;1.00
15217;DHT22;7711;46.634;14.318;2024-01-25T10:03:10;4.40;1.00
15217;DHT22;7711;46.634;14.318;2024-01-25T10:05:37;4.60;1.00
15217;DHT22;7711;46.634;14.318;2024-01-25T10:08:12;4.60;1.00
15217;DHT22;7711;46.634;14.318;2024-01-25T10:10:40;4.70;1.00
15217;DHT22;7711;46.634;14.318;2024-01-25T10:13:12;4.80;1.00
15217;DHT22;7711;46.634;14.318;2024-01-25T10:15:39;4.80;1.00
15217;DHT22;7711;46.634;14.318;2024-01-25T10:18:10;4.90;1.00
15217;DHT22;7711;46.634;14.318;2024-01-25T10:20:39;4.90;1.00
15217;DHT22;7711;46.634;14.318;2024-01-25T10:23:08;5.10;1.00
15217;DHT22;7711;46.634;14.318;2024-01-25T10:25:35;5.20;1.00
15217;DHT22;7711;46.634;14.318;2024-01-25T10:28:03;5.20;1.00
15217;DHT22;7711;46.634;14.318;2024-01-25T10:30:32;5.10;1.00
15217;DHT22;7711;46.634;14.318;2024-01-25T10:33:00;5.20;1.00
15217;DHT22;7711;46.634;14.318;2024-01-25T10:35:27;5.30;1.00
15217;DHT22;7711;46.634;14.318;2024-01-25T10:37:55;5.50;99.90
15217;DHT22;7711;46.634;14.318;2024-01-25T10:40:24;5.60;99.90
15217;DHT22;7711;46.634;14.318;2024-01-25T10:42:51;5.60;99.90
15217;DHT22;7711;46.634;14.318;2024-01-25T10:45:18;5.60;99.90
15217;DHT22;7711;46.634;14.318;2024-01-25T10:47:48;5.70;99.90
15217;DHT22;7711;46.634;14.318;2024-01-25T10:50:15;5.80;99.90
15217;DHT22;7711;46.634;14.318;2024-01-25T10:52:43;6.00;99.90
15217;DHT22;7711;46.634;14.318;2024-01-25T10:55:11;6.10;99.90
15217;DHT22;7711;46.634;14.318;2024-01-25T10:57:43;6.20;99.90
15217;DHT22;7711;46.634;14.318;2024-01-25T11:00:11;6.40;99.90
15217;DHT22;7711;46.634;14.318;2024-01-25T11:02:39;6.40;99.90
15217;DHT22;7711;46.634;14.318;2024-01-25T11:05:08;6.40;99.90
15217;DHT22;7711;46.634;14.318;2024-01-25T11:07:43;6.50;99.90
15217;DHT22;7711;46.634;14.318;2024-01-25T11:10:16;6.60;99.90
15217;DHT22;7711;46.634;14.318;2024-01-25T11:12:50;6.60;99.90
15217;DHT22;7711;46.634;14.318;2024-01-25T11:15:21;6.40;99.90
15217;DHT22;7711;46.634;14.318;2024-01-25T11:17:53;6.50;99.90
15217;DHT22;7711;46.634;14.318;2024-01-25T11:20:31;6.60;99.90
15217;DHT22;7711;46.634;14.318;2024-01-25T11:23:00;6.90;99.90
15217;DHT22;7711;46.634;14.318;2024-01-25T11:25:28;6.90;99.90
15217;DHT22;7711;46.634;14.318;2024-01-25T11:27:55;7.20;99.90
15217;DHT22;7711;46.634;14.318;2024-01-25T11:30:22;7.40;99.90
15217;DHT22;7711;46.634;14.318;2024-01-25T11:32:49;7.60;99.90
15217;DHT22;7711;46.634;14.318;2024-01-25T11:35:17;7.90;99.90
15217;DHT22;7711;46.634;14.318;2024-01-25T11:37:46;8.00;99.90
15217;DHT22;7711;46.634;14.318;2024-01-25T11:40:14;7.90;99.90
15217;DHT22;7711;46.634;14.318;2024-01-25T11:42:43;8.10;99.90
15217;DHT22;7711;46.634;14.318;2024-01-25T11:45:11;8.20;99.90
15217;DHT22;7711;46.634;14.318;2024-01-25T11:47:39;8.20;99.90
15217;DHT22;7711;46.634;14.318;2024-01-25T11:50:08;8.20;99.90
15217;DHT22;7711;46.634;14.318;2024-01-25T11:52:35;8.30;99.90
15217;DHT22;7711;46.634;14.318;2024-01-25T11:55:04;8.40;99.90
15217;DHT22;7711;46.634;14.318;2024-01-25T11:57:34;8.50;99.90
15217;DHT22;7711;46.634;14.318;2024-01-25T12:00:02;8.60;99.90
15217;DHT22;7711;46.634;14.318;2024-01-25T12:02:30;8.80;99.90
15217;DHT22;7711;46.634;14.318;2024-01-25T12:04:58;9.10;99.90
15217;DHT22;7711;46.634;14.318;2024-01-25T12:07:25;9.10;99.90
15217;DHT22;7711;46.634;14.318;2024-01-25T12:09:59;9.10;99.90
15217;DHT22;7711;46.634;14.318;2024-01-25T12:12:27;9.30;99.90
15217;DHT22;7711;46.634;14.318;2024-01-25T12:14:58;9.50;99.90
15217;DHT22;7711;46.634;14.318;2024-01-25T12:17:26;9.60;99.90
15217;DHT22;7711;46.634;14.318;2024-01-25T12:19:55;9.80;99.90
15217;DHT22;7711;46.634;14.318;2024-01-25T12:22:23;9.70;99.90
15217;DHT22;7711;46.634;14.318;2024-01-25T12:24:52;9.90;99.90
15217;DHT22;7711;46.634;14.318;2024-01-25T12:27:20;10.10;99.90
15217;DHT22;7711;46.634;14.318;2024-01-25T12:29:49;10.10;99.90
15217;DHT22;7711;46.634;14.318;2024-01-25T12:32:16;10.20;99.90
15217;DHT22;7711;46.634;14.318;2024-01-25T12:34:52;10.50;99.90
15217;DHT22;7711;46.634;14.318;2024-01-25T12:37:19;10.70;99.90
15217;DHT22;7711;46.634;14.318;2024-01-25T12:39:46;10.60;99.90
15217;DHT22;7711;46.634;14.318;2024-01-25T12:42:13;10.30;99.90
15217;DHT22;7711;46.634;14.318;2024-01-25T12:44:40;10.10;99.90
15217;DHT22;7711;46.634;14.318;2024-01-25T12:47:09;10.10;99.90
15217;DHT22;7711;46.634;14.318;2024-01-25T12:49:39;9.60;99.90
15217;DHT22;7711;46.634;14.318;2024-01-25T12:52:06;9.70;99.90
15217;DHT22;7711;46.634;14.318;2024-01-25T12:54:34;9.50;99.90
15217;DHT22;7711;46.634;14.318;2024-01-25T12:57:01;9.60;99.90
15217;DHT22;7711;46.634;14.318;2024-01-25T12:59:27;9.90;99.90
15217;DHT22;7711;46.634;14.318;2024-01-25T13:01:54;10.10;99.90
15217;DHT22;7711;46.634;14.318;2024-01-25T13:04:23;9.80;99.90
15217;DHT22;7711;46.634;14.318;2024-01-25T13:06:52;10.10;99.90
15217;DHT22;7711;46.634;14.318;2024-01-25T13:09:19;10.20;99.90
15217;DHT22;7711;46.634;14.318;2024-01-25T13:11:46;10.40;99.90
15217;DHT22;7711;46.634;14.318;2024-01-25T13:14:13;10.70;99.90
15217;DHT22;7711;46.634;14.318;2024-01-25T13:16:40;10.80;99.90
15217;DHT22;7711;46.634;14.318;2024-01-25T13:19:07;11.50;99.90
15217;DHT22;7711;46.634;14.318;2024-01-25T13:21:36;12.10;99.90
15217;DHT22;7711;46.634;14.318;2024-01-25T13:24:04;13.50;99.90
15217;DHT22;7711;46.634;14.318;2024-01-25T13:26:31;15.30;99.90
15217;DHT22;7711;46.634;14.318;2024-01-25T13:28:58;16.30;99.90
15217;DHT22;7711;46.634;14.318;2024-01-25T13:31:25;17.20;99.90
15217;DHT22;7711;46.634;14.318;2024-01-25T13:33:52;16.60;99.90
15217;DHT22;7711;46.634;14.318;2024-01-25T13:36:18;15.80;99.90
15217;DHT22;7711;46.634;14.318;2024-01-25T13:38:47;16.60;99.90
15217;DHT22;7711;46.634;14.318;2024-01-25T13:41:14;15.90;99.90
15217;DHT22;7711;46.634;14.318;2024-01-25T13:43:41;15.30;99.90
15217;DHT22;7711;46.634;14.318;2024-01-25T13:46:07;15.30;99.90
15217;DHT22;7711;46.634;14.318;2024-01-25T13:48:34;14.80;99.90
15217;DHT22;7711;46.634;14.318;2024-01-25T13:51:01;14.20;99.90
15217;DHT22;7711;46.634;14.318;2024-01-25T13:53:28;14.30;99.90
15217;DHT22;7711;46.634;14.318;2024-01-25T13:55:57;13.80;99.90
15217;DHT22;7711;46.634;14.318;2024-01-25T13:58:24;14.20;99.90
15217;DHT22;7711;46.634;14.318;2024-01-25T14:00:50;14.40;99.90
15217;DHT22;7711;46.634;14.318;2024-01-25T14:03:17;15.70;99.90
15217;DHT22;7711;46.634;14.318;2024-01-25T14:05:44;16.10;99.90
15217;DHT22;7711;46.634;14.318;2024-01-25T14:08:11;16.10;99.90
15217;DHT22;7711;46.634;14.318;2024-01-25T14:10:38;16.20;99.90
15217;DHT22;7711;46.634;14.318;2024-01-25T14:13:07;16.80;99.90
15217;DHT22;7711;46.634;14.318;2024-01-25T14:15:35;16.40;99.90
15217;DHT22;7711;46.634;14.318;2024-01-25T14:18:02;15.60;99.90
15217;DHT22;7711;46.634;14.318;2024-01-25T14:20:29;15.90;99.90
15217;DHT22;7711;46.634;14.318;2024-01-25T14:22:56;14.90;99.90
15217;DHT22;7711;46.634;14.318;2024-01-25T14:25:23;14.70;99.90
15217;DHT22;7711;46.634;14.318;2024-01-25T14:27:49;14.80;99.90
15217;DHT22;7711;46.634;14.318;2024-01-25T14:30:18;14.60;99.90
15217;DHT22;7711;46.634;14.318;2024-01-25T14:32:45;15.10;99.90
15217;DHT22;7711;46.634;14.318;2024-01-25T14:35:12;14.80;99.90
15217;DHT22;7711;46.634;14.318;2024-01-25T14:37:39;15.40;99.90
15217;DHT22;7711;46.634;14.318;2024-01-25T14:40:07;14.60;99.90
15217;DHT22;7711;46.634;14.318;2024-01-25T14:42:34;13.90;99.90
15217;DHT22;7711;46.634;14.318;2024-01-25T14:45:03;14.60;99.90
15217;DHT22;7711;46.634;14.318;2024-01-25T14:47:32;15.30;99.90
15217;DHT22;7711;46.634;14.318;2024-01-25T14:49:59;15.80;99.90
15217;DHT22;7711;46.634;14.318;2024-01-25T14:52:26;15.60;99.90
15217;DHT22;7711;46.634;14.318;2024-01-25T14:54:53;15.90;99.90
15217;DHT22;7711;46.634;14.318;2024-01-25T14:57:20;14.10;99.90
15217;DHT22;7711;46.634;14.318;2024-01-25T14:59:47;13.30;99.90
15217;DHT22;7711;46.634;14.318;2024-01-25T15:02:14;13.10;99.90
15217;DHT22;7711;46.634;14.318;2024-01-25T15:04:42;13.30;99.90
15217;DHT22;7711;46.634;14.318;2024-01-25T15:07:09;13.40;99.90
15217;DHT22;7711;46.634;14.318;2024-01-25T15:09:36;12.60;99.90
15217;DHT22;7711;46.634;14.318;2024-01-25T15:12:03;12.20;99.90
15217;DHT22;7711;46.634;14.318;2024-01-25T15:14:31;11.20;99.90
15217;DHT22;7711;46.634;14.318;2024-01-25T15:16:56;10.40;99.90
15217;DHT22;7711;46.634;14.318;2024-01-25T15:19:23;10.10;99.90
15217;DHT22;7711;46.634;14.318;2024-01-25T15:21:52;9.70;99.90
15217;DHT22;7711;46.634;14.318;2024-01-25T15:24:19;9.40;99.90
15217;DHT22;7711;46.634;14.318;2024-01-25T15:26:46;9.10;99.90
15217;DHT22;7711;46.634;14.318;2024-01-25T15:29:13;8.70;99.90
15217;DHT22;7711;46.634;14.318;2024-01-25T15:31:39;8.40;99.90
15217;DHT22;7711;46.634;14.318;2024-01-25T15:34:06;8.00;99.90
15217;DHT22;7711;46.634;14.318;2024-01-25T15:36:33;7.70;99.90
15217;DHT22;7711;46.634;14.318;2024-01-25T15:39:02;7.50;99.90
15217;DHT22;7711;46.634;14.318;2024-01-25T15:41:29;7.20;99.90
15217;DHT22;7711;46.634;14.318;2024-01-25T15:43:56;7.10;99.90